Time;durP1;ratioP1;P1;durP2;ratioP2;P2;SDS_P1;SDS_P2;PMS_P1;PMS_P2;Temp;Humidity;BMP_temperature;BMP_pressure;BME280_temperature;BME280_humidity;BME280_pressure;Samples;Min_cycle;Max_cycle;Signal;HPM_P1;HPM_P2
2022/04/11 00:01:56;;;;;;;3.33;2.90;;;1.30;99.90;;;;;;4978434;28;20634;-75
2022/04/11 00:04:22;;;;;;;3.73;3.27;;;1.30;99.90;;;;;;4962559;28;20225;-75
2022/04/11 00:06:48;;;;;;;3.47;2.80;;;1.30;99.90;;;;;;4994793;28;20218;-75
2022/04/11 00:09:14;;;;;;;2.80;2.60;;;1.40;99.90;;;;;;4994579;28;20203;-75
2022/04/11 00:11:39;;;;;;;3.03;2.70;;;1.30;99.90;;;;;;4994837;28;20214;-75
2022/04/11 00:14:05;;;;;;;2.90;2.70;;;1.20;99.90;;;;;;4962324;28;20207;-75
2022/04/11 00:16:31;;;;;;;3.17;2.83;;;1.30;99.90;;;;;;4994659;28;20175;-75
2022/04/11 00:18:57;;;;;;;3.00;2.70;;;1.20;99.90;;;;;;4978496;28;20265;-75
2022/04/11 00:21:23;;;;;;;5.23;2.50;;;1.10;99.90;;;;;;4994806;28;20176;-75
2022/04/11 00:23:48;;;;;;;2.90;2.60;;;1.10;99.90;;;;;;4994567;28;20182;-75
2022/04/11 00:26:14;;;;;;;3.60;2.70;;;1.20;99.90;;;;;;4978444;28;20212;-75
2022/04/11 00:28:40;;;;;;;4.63;2.97;;;1.10;99.90;;;;;;5014520;28;20287;-75
2022/04/11 00:31:05;;;;;;;3.90;3.10;;;1.10;99.90;;;;;;4998519;28;20191;-75
2022/04/11 00:33:31;;;;;;;3.27;2.67;;;1.20;99.90;;;;;;4998493;28;20684;-75
2022/04/11 00:35:56;;;;;;;3.20;2.57;;;1.30;99.90;;;;;;4982275;28;20185;-75
2022/04/11 00:38:22;;;;;;;3.97;2.60;;;1.20;99.90;;;;;;4998288;28;20193;-75
2022/04/11 00:40:48;;;;;;;3.37;2.67;;;1.30;99.90;;;;;;4965954;28;20350;-75
2022/04/11 00:43:33;;;;;;;2.80;2.50;;;1.30;99.90;;;;;;4998199;28;20190;-75
2022/04/11 00:45:59;;;;;;;3.47;2.67;;;1.20;99.90;;;;;;4998306;28;20649;-75
2022/04/11 00:48:25;;;;;;;3.53;2.97;;;1.00;99.90;;;;;;5015772;28;20259;-75
2022/04/11 00:51:00;;;;;;;4.17;3.13;;;1.00;99.90;;;;;;5014504;28;20306;-75
2022/04/11 00:53:28;;;;;;;3.97;2.90;;;1.10;99.90;;;;;;4982137;28;20212;-75
2022/04/11 00:55:56;;;;;;;2.47;2.27;;;1.00;99.90;;;;;;4998289;28;20175;-75
2022/04/11 00:58:22;;;;;;;2.63;2.40;;;1.00;99.90;;;;;;4998147;28;20171;-75
2022/04/11 01:00:48;;;;;;;3.07;2.67;;;0.90;99.90;;;;;;4981930;28;20699;-75
2022/04/11 01:03:14;;;;;;;3.50;2.80;;;0.80;99.90;;;;;;4997819;28;20175;-75
2022/04/11 01:05:41;;;;;;;3.33;2.80;;;1.00;99.90;;;;;;4998102;28;20183;-75
2022/04/11 01:08:08;;;;;;;3.43;2.50;;;1.10;99.90;;;;;;5015369;28;20175;-75
2022/04/11 01:10:34;;;;;;;2.90;2.60;;;1.20;99.90;;;;;;4997446;28;20195;-75
2022/04/11 01:13:01;;;;;;;3.17;2.73;;;1.30;99.90;;;;;;5013959;28;20175;-75
2022/04/11 01:15:27;;;;;;;3.33;2.80;;;1.10;99.90;;;;;;4997900;28;20649;-75
2022/04/11 01:17:52;;;;;;;3.53;3.00;;;1.10;99.90;;;;;;4997872;28;20182;-75
2022/04/11 01:20:19;;;;;;;3.73;2.80;;;1.10;99.90;;;;;;4965304;28;20196;-75
2022/04/11 01:22:46;;;;;;;3.20;2.90;;;1.10;99.90;;;;;;4997558;28;20179;-75
2022/04/11 01:25:13;;;;;;;3.70;2.90;;;1.20;99.90;;;;;;4965524;28;20603;-75
2022/04/11 01:27:40;;;;;;;3.43;2.90;;;1.30;99.90;;;;;;5014040;28;20539;-75
2022/04/11 01:30:07;;;;;;;3.60;2.73;;;1.30;99.90;;;;;;5013896;28;20616;-75
2022/04/11 01:32:33;;;;;;;3.73;3.07;;;1.40;99.90;;;;;;5013403;28;20211;-75
2022/04/11 01:34:59;;;;;;;3.43;3.10;;;1.50;99.90;;;;;;4981176;28;20278;-75
2022/04/11 01:37:24;;;;;;;3.83;2.73;;;1.40;99.90;;;;;;4996819;28;20185;-75
2022/04/11 01:39:50;;;;;;;2.83;2.63;;;1.40;99.90;;;;;;4980916;28;20204;-75
2022/04/11 01:42:16;;;;;;;4.83;2.87;;;1.30;99.90;;;;;;4997360;28;20187;-75
2022/04/11 01:44:41;;;;;;;3.80;2.70;;;1.20;99.90;;;;;;4965192;28;20188;-75
2022/04/11 01:47:07;;;;;;;4.37;2.90;;;1.30;99.90;;;;;;5014605;28;20179;-75
2022/04/11 01:49:33;;;;;;;3.50;2.83;;;1.30;99.90;;;;;;4964743;28;20224;-75
2022/04/11 01:51:58;;;;;;;3.67;2.70;;;1.20;99.90;;;;;;4980655;28;20234;-75
2022/04/11 01:54:24;;;;;;;3.07;2.77;;;1.10;99.90;;;;;;4964547;28;20215;-75
2022/04/11 01:56:49;;;;;;;4.00;3.00;;;1.10;99.90;;;;;;4997089;28;20179;-75
2022/04/11 01:59:16;;;;;;;4.67;3.13;;;1.10;99.90;;;;;;4964760;28;20211;-75
2022/04/11 02:01:43;;;;;;;4.27;3.33;;;1.00;99.90;;;;;;4997013;28;20197;-75
2022/04/11 02:04:09;;;;;;;4.03;3.03;;;1.00;99.90;;;;;;5012942;28;20666;-75
2022/04/11 02:06:34;;;;;;;3.83;3.00;;;1.10;99.90;;;;;;5013078;28;20188;-75
2022/04/11 02:09:00;;;;;;;3.20;2.93;;;1.00;99.90;;;;;;4996695;28;20195;-74
2022/04/11 02:11:25;;;;;;;3.63;2.80;;;0.80;99.90;;;;;;4964349;28;20266;-75
2022/04/11 02:13:51;;;;;;;5.87;3.33;;;0.70;99.90;;;;;;4980270;28;20199;-75
2022/04/11 02:16:17;;;;;;;5.70;3.83;;;0.80;99.90;;;;;;4980468;28;20229;-75
2022/04/11 02:18:43;;;;;;;3.93;3.30;;;0.80;99.90;;;;;;5012842;28;20204;-75
2022/04/11 02:21:09;;;;;;;3.57;3.17;;;0.70;99.90;;;;;;4980409;28;20254;-75
2022/04/11 02:23:34;;;;;;;3.40;3.10;;;0.70;99.90;;;;;;4963881;28;20333;-75
2022/04/11 02:26:00;;;;;;;3.83;3.43;;;0.70;99.90;;;;;;4996412;28;20179;-75
2022/04/11 02:28:25;;;;;;;4.17;3.10;;;0.70;99.90;;;;;;4964234;28;20179;-75
2022/04/11 02:30:51;;;;;;;4.13;3.30;;;0.70;99.90;;;;;;4964352;28;20195;-75
2022/04/11 02:33:17;;;;;;;3.73;3.33;;;0.60;99.90;;;;;;4996090;28;20253;-75
2022/04/11 02:35:43;;;;;;;4.23;3.07;;;0.60;99.90;;;;;;4964175;28;20175;-75
2022/04/11 02:38:08;;;;;;;4.63;3.20;;;0.70;99.90;;;;;;4996114;28;20198;-75
2022/04/11 02:40:34;;;;;;;3.27;2.73;;;0.80;99.90;;;;;;4980037;28;20275;-75
2022/04/11 02:43:00;;;;;;;3.90;3.20;;;0.80;99.90;;;;;;4996090;28;20262;-75
2022/04/11 02:45:25;;;;;;;3.50;2.93;;;0.70;99.90;;;;;;4964029;28;20266;-75
2022/04/11 02:47:51;;;;;;;3.47;2.97;;;0.80;99.90;;;;;;4996112;28;20199;-75
2022/04/11 02:50:17;;;;;;;3.10;2.80;;;0.80;99.90;;;;;;5012508;28;20207;-75
2022/04/11 02:52:42;;;;;;;3.93;3.00;;;0.80;99.90;;;;;;4995610;28;20214;-75
2022/04/11 02:55:09;;;;;;;3.40;2.90;;;0.70;99.90;;;;;;4996026;28;20203;-75
2022/04/11 02:57:36;;;;;;;3.20;2.50;;;0.60;99.90;;;;;;5012310;28;20226;-75
2022/04/11 03:00:09;;;;;;;3.17;2.33;;;0.60;99.90;;;;;;4996127;28;20302;-75
2022/04/11 03:02:34;;;;;;;3.00;2.43;;;0.50;99.90;;;;;;4995593;28;20175;-75
2022/04/11 03:05:00;;;;;;;2.40;2.20;;;0.60;99.90;;;;;;4995666;28;20186;-75
2022/04/11 03:07:27;;;;;;;2.70;2.47;;;0.60;99.90;;;;;;4979368;28;20187;-75
2022/04/11 03:09:53;;;;;;;2.93;2.60;;;0.70;99.90;;;;;;5012091;28;20796;-75
2022/04/11 03:12:19;;;;;;;3.60;2.50;;;0.70;99.90;;;;;;4995874;28;20175;-75
2022/04/11 03:14:47;;;;;;;3.80;2.63;;;0.60;99.90;;;;;;4995594;28;20775;-75
2022/04/11 03:17:12;;;;;;;3.00;2.23;;;0.40;99.90;;;;;;4979461;28;20171;-75
2022/04/11 03:19:38;;;;;;;3.17;2.83;;;0.30;99.90;;;;;;4995314;28;20248;-75
2022/04/11 03:22:03;;;;;;;2.73;2.30;;;0.40;99.90;;;;;;4962885;28;20182;-75
2022/04/11 03:24:29;;;;;;;2.50;2.30;;;0.30;99.90;;;;;;4963361;28;20179;-75
2022/04/11 03:26:55;;;;;;;5.17;2.40;;;0.30;99.90;;;;;;4995616;28;20190;-75
2022/04/11 03:29:21;;;;;;;4.40;2.60;;;0.30;99.90;;;;;;4962882;28;20281;-75
2022/04/11 03:31:48;;;;;;;2.50;2.30;;;0.30;99.90;;;;;;4978930;28;20657;-75
2022/04/11 03:34:13;;;;;;;2.07;1.87;;;0.40;99.90;;;;;;4963116;28;20291;-75
2022/04/11 03:36:39;;;;;;;2.50;2.30;;;0.40;99.90;;;;;;4994983;28;20202;-75
2022/04/11 03:39:05;;;;;;;2.50;1.80;;;0.40;99.90;;;;;;4978899;28;20199;-75
2022/04/11 03:41:30;;;;;;;2.07;1.87;;;0.30;99.90;;;;;;4962840;28;20187;-75
2022/04/11 03:43:56;;;;;;;2.43;2.00;;;0.40;99.90;;;;;;4978942;28;20186;-75
2022/04/11 03:46:22;;;;;;;3.23;2.07;;;0.40;99.90;;;;;;5012598;28;20202;-75
2022/04/11 03:48:47;;;;;;;2.20;2.00;;;0.40;99.90;;;;;;4994782;28;20179;-75
2022/04/11 03:51:13;;;;;;;2.93;2.30;;;0.40;99.90;;;;;;4963177;28;20221;-75
2022/04/11 03:53:38;;;;;;;3.67;2.40;;;0.30;99.90;;;;;;4994816;28;20677;-74
2022/04/11 03:56:05;;;;;;;2.40;2.20;;;0.40;99.90;;;;;;4962248;28;20209;-75
2022/04/11 03:58:31;;;;;;;3.67;2.10;;;0.40;99.90;;;;;;4995391;28;20171;-75
2022/04/11 04:00:56;;;;;;;2.50;1.73;;;0.50;99.90;;;;;;5011488;28;20183;-75
2022/04/11 04:03:22;;;;;;;2.97;2.10;;;0.40;99.90;;;;;;5011444;28;20189;-75
2022/04/11 04:05:48;;;;;;;2.53;2.10;;;0.30;99.90;;;;;;4995289;28;20277;-75
2022/04/11 04:08:17;;;;;;;3.40;2.03;;;0.30;99.90;;;;;;4979108;28;20189;-75
2022/04/11 04:10:43;;;;;;;2.10;1.90;;;0.30;99.90;;;;;;4995661;28;20245;-75
2022/04/11 04:13:08;;;;;;;2.97;2.40;;;0.20;99.90;;;;;;4995237;28;20210;-75
2022/04/11 04:15:34;;;;;;;2.77;2.37;;;0.30;99.90;;;;;;4995477;28;20273;-75
2022/04/11 04:17:59;;;;;;;3.50;2.20;;;0.40;99.90;;;;;;4995259;28;20183;-75
2022/04/11 04:20:26;;;;;;;2.47;2.27;;;0.30;99.90;;;;;;4978916;28;20203;-75
2022/04/11 04:22:52;;;;;;;2.70;2.20;;;0.30;99.90;;;;;;5012617;28;20190;-75
2022/04/11 04:25:18;;;;;;;2.63;2.33;;;0.40;99.90;;;;;;4995515;28;20177;-75
2022/04/11 04:27:44;;;;;;;3.70;2.30;;;0.50;99.90;;;;;;4995350;28;20270;-75
2022/04/11 04:30:10;;;;;;;4.23;2.20;;;0.50;99.90;;;;;;4978927;28;20198;-75
2022/04/11 04:32:35;;;;;;;4.07;2.60;;;0.40;99.90;;;;;;4978622;28;20182;-75
2022/04/11 04:35:01;;;;;;;3.47;2.30;;;0.30;99.90;;;;;;4978857;28;20689;-75
2022/04/11 04:37:27;;;;;;;2.57;2.37;;;0.40;99.90;;;;;;4995368;28;20174;-75
2022/04/11 04:39:53;;;;;;;3.83;2.30;;;0.50;99.90;;;;;;4978812;28;20218;-75
2022/04/11 04:42:22;;;;;;;2.87;2.60;;;0.60;99.90;;;;;;5011096;28;20666;-75
2022/04/11 04:44:48;;;;;;;3.50;2.53;;;0.60;99.90;;;;;;4995062;28;20210;-75
2022/04/11 04:47:18;;;;;;;2.93;2.50;;;0.50;99.90;;;;;;4978836;28;20199;-75
2022/04/11 04:49:45;;;;;;;2.50;2.30;;;0.50;99.90;;;;;;5026988;22;20214;-75
2022/04/11 04:52:11;;;;;;;3.80;2.40;;;0.60;99.90;;;;;;5013732;28;20178;-75
2022/04/11 04:54:37;;;;;;;2.47;2.23;;;0.50;99.90;;;;;;5013878;28;20302;-75
2022/04/11 04:57:03;;;;;;;2.80;2.30;;;0.50;99.90;;;;;;5014059;28;20202;-75
2022/04/11 04:59:29;;;;;;;3.47;2.60;;;0.30;99.90;;;;;;5014025;28;20200;-75
2022/04/11 05:01:55;;;;;;;2.90;2.50;;;0.30;99.90;;;;;;5030157;28;20671;-75
2022/04/11 05:04:21;;;;;;;5.50;2.80;;;0.20;99.90;;;;;;5013945;28;20206;-76
2022/04/11 05:06:46;;;;;;;3.47;2.50;;;0.10;99.90;;;;;;5030512;28;20174;-75
2022/04/11 05:09:12;;;;;;;3.87;2.77;;;0.20;99.90;;;;;;5014039;28;20649;-75
2022/04/11 05:11:37;;;;;;;4.43;2.73;;;0.20;99.90;;;;;;4997542;28;20649;-75
2022/04/11 05:14:03;;;;;;;3.93;2.80;;;0.20;99.90;;;;;;4999846;28;20206;-75
2022/04/11 05:16:29;;;;;;;3.83;3.10;;;0.10;99.90;;;;;;5001047;28;20186;-76
2022/04/11 05:18:55;;;;;;;3.77;2.90;;;0.20;99.90;;;;;;5034009;28;20186;-76
2022/04/11 05:21:20;;;;;;;5.40;3.50;;;0.10;99.90;;;;;;5033949;28;20179;-75
2022/04/11 05:23:46;;;;;;;3.13;2.80;;;0.30;99.90;;;;;;5017128;28;20183;-76
2022/04/11 05:26:12;;;;;;;4.07;2.87;;;0.30;99.90;;;;;;5017200;28;20202;-75
2022/04/11 05:28:37;;;;;;;3.93;2.63;;;0.30;99.90;;;;;;5000961;28;20182;-75
2022/04/11 05:31:03;;;;;;;4.40;3.23;;;0.30;99.90;;;;;;5016872;28;20212;-75
2022/04/11 05:33:28;;;;;;;3.07;2.77;;;0.40;99.90;;;;;;5000764;28;20213;-75
2022/04/11 05:35:56;;;;;;;4.30;3.00;;;0.40;99.90;;;;;;5016966;28;20179;-75
2022/04/11 05:38:22;;;;;;;3.87;3.30;;;0.50;99.90;;;;;;5017339;28;20201;-75
2022/04/11 05:40:47;;;;;;;4.63;3.40;;;0.50;99.90;;;;;;5000566;28;20293;-74
2022/04/11 05:43:13;;;;;;;4.23;3.10;;;0.50;99.90;;;;;;5000497;28;20190;-75
2022/04/11 05:45:40;;;;;;;5.83;3.07;;;0.50;99.90;;;;;;5033248;28;20219;-75
2022/04/11 05:48:05;;;;;;;5.50;2.90;;;1.20;99.90;;;;;;5033399;28;20178;-76
2022/04/11 05:50:31;;;;;;;3.60;3.03;;;2.10;99.90;;;;;;5032976;28;20237;-76
2022/04/11 05:52:57;;;;;;;4.27;2.87;;;2.80;99.90;;;;;;5000239;28;20182;-76
2022/04/11 05:55:23;;;;;;;2.90;2.60;;;3.50;99.90;;;;;;5000408;28;20217;-76
2022/04/11 05:57:49;;;;;;;4.00;2.90;;;4.00;99.90;;;;;;5033311;28;20315;-75
2022/04/11 06:00:15;;;;;;;3.57;2.33;;;4.30;99.90;;;;;;5000152;28;20247;-75
2022/04/11 06:02:41;;;;;;;3.63;2.90;;;4.20;99.90;;;;;;5000196;28;20180;-75
2022/04/11 06:05:08;;;;;;;3.20;2.90;;;3.70;99.90;;;;;;5016662;28;20231;-75
2022/04/11 06:07:33;;;;;;;5.77;3.03;;;3.30;99.90;;;;;;5033004;28;20263;-75
2022/04/11 06:09:59;;;;;;;3.53;3.10;;;2.70;99.90;;;;;;5032945;28;20403;-75
2022/04/11 06:12:26;;;;;;;3.47;3.17;;;2.40;99.90;;;;;;5016081;28;20255;-75
2022/04/11 06:14:55;;;;;;;4.00;3.60;;;2.10;99.90;;;;;;5034399;28;20208;-75
2022/04/11 06:17:24;;;;;;;5.40;2.80;;;1.90;99.90;;;;;;5016536;28;20183;-75
2022/04/11 06:19:51;;;;;;;3.87;3.27;;;1.70;99.90;;;;;;5033731;28;20217;-75
2022/04/11 06:22:17;;;;;;;3.90;3.30;;;1.50;99.90;;;;;;5016306;28;20274;-76
2022/04/11 06:24:46;;;;;;;3.80;3.40;;;1.60;99.90;;;;;;5016009;28;20191;-75
2022/04/11 06:27:12;;;;;;;4.90;3.40;;;1.60;99.90;;;;;;5016617;28;20188;-75
2022/04/11 06:29:37;;;;;;;4.10;3.70;;;1.60;99.90;;;;;;5033464;28;20254;-75
2022/04/11 06:32:04;;;;;;;3.40;3.10;;;1.50;99.90;;;;;;5032124;28;20207;-75
2022/04/11 06:34:35;;;;;;;4.13;3.17;;;1.50;99.90;;;;;;5032401;28;20612;-75
2022/04/11 06:37:00;;;;;;;4.33;3.80;;;1.50;99.90;;;;;;4999919;28;20191;-75
2022/04/11 06:39:27;;;;;;;5.27;3.40;;;1.40;99.90;;;;;;5015112;28;20198;-75
2022/04/11 06:41:52;;;;;;;4.47;3.33;;;1.40;99.90;;;;;;5031940;28;20238;-75
2022/04/11 06:44:18;;;;;;;5.03;3.20;;;1.40;99.90;;;;;;5032483;28;20178;-75
2022/04/11 06:46:44;;;;;;;5.47;3.80;;;1.40;99.90;;;;;;5015886;28;20671;-75
2022/04/11 06:49:09;;;;;;;4.90;3.87;;;1.50;99.90;;;;;;5015666;28;20183;-75
2022/04/11 06:51:35;;;;;;;4.63;4.23;;;1.60;99.90;;;;;;5015721;28;20281;-75
2022/04/11 06:54:01;;;;;;;4.73;3.80;;;1.80;99.90;;;;;;5015470;28;20210;-75
2022/04/11 06:56:26;;;;;;;6.63;4.60;;;1.90;99.90;;;;;;5015556;28;20200;-75
2022/04/11 06:58:52;;;;;;;5.37;4.07;;;2.10;99.90;;;;;;5015542;28;20182;-75
2022/04/11 07:01:17;;;;;;;5.00;4.50;;;2.10;99.90;;;;;;5015651;28;20214;-75
2022/04/11 07:03:43;;;;;;;4.80;4.30;;;2.10;99.90;;;;;;4998942;28;20597;-75
2022/04/11 07:06:10;;;;;;;4.77;4.13;;;2.10;99.90;;;;;;5015255;28;20213;-74
2022/04/11 07:08:36;;;;;;;5.20;3.83;;;2.20;99.90;;;;;;5031916;28;20180;-75
2022/04/11 07:11:02;;;;;;;4.30;3.90;;;2.30;99.90;;;;;;5015218;28;20198;-74
2022/04/11 07:13:28;;;;;;;4.77;3.70;;;2.40;99.90;;;;;;5015270;28;20207;-74
2022/04/11 07:15:53;;;;;;;5.67;4.20;;;2.50;99.90;;;;;;5015416;28;20587;-76
2022/04/11 07:18:19;;;;;;;6.63;4.13;;;2.50;99.90;;;;;;5031621;28;20203;-75
2022/04/11 07:20:45;;;;;;;5.27;3.73;;;2.70;99.90;;;;;;5015104;28;20297;-75
2022/04/11 07:23:11;;;;;;;5.30;3.50;;;2.70;99.90;;;;;;4998694;28;20257;-75
2022/04/11 07:25:37;;;;;;;4.67;3.33;;;2.80;99.90;;;;;;5014844;28;20616;-75
2022/04/11 07:28:03;;;;;;;5.17;3.57;;;2.90;99.90;;;;;;5031236;28;20178;-75
2022/04/11 07:30:29;;;;;;;4.37;3.43;;;3.10;99.90;;;;;;5031616;28;20195;-75
2022/04/11 07:32:54;;;;;;;4.33;3.13;;;3.20;99.90;;;;;;5014796;28;20174;-75
2022/04/11 07:35:20;;;;;;;5.67;3.07;;;3.30;99.90;;;;;;5031038;28;20205;-76
2022/04/11 07:37:46;;;;;;;4.13;3.30;;;3.50;99.90;;;;;;5014979;28;20187;-75
2022/04/11 07:40:12;;;;;;;4.97;3.33;;;3.60;99.90;;;;;;4998365;28;20247;-75
2022/04/11 07:42:38;;;;;;;5.27;4.20;;;3.80;99.90;;;;;;4998332;28;20205;-75
2022/04/11 07:45:04;;;;;;;4.63;3.67;;;4.00;99.90;;;;;;5031661;28;20207;-75
2022/04/11 07:47:29;;;;;;;13.70;10.33;;;4.20;99.90;;;;;;5031930;28;20270;-74
2022/04/11 07:49:55;;;;;;;4.03;3.63;;;4.40;99.90;;;;;;5014478;28;20363;-75
2022/04/11 07:52:21;;;;;;;4.33;3.60;;;4.50;99.90;;;;;;4998201;28;20181;-75
2022/04/11 07:54:47;;;;;;;5.30;3.67;;;4.70;99.90;;;;;;4998330;28;20205;-75
2022/04/11 07:57:13;;;;;;;4.40;3.73;;;4.80;99.90;;;;;;4998553;28;20185;-75
2022/04/11 07:59:39;;;;;;;3.97;3.40;;;4.90;99.90;;;;;;4998454;28;20198;-75
2022/04/11 08:02:05;;;;;;;5.23;3.57;;;5.10;99.90;;;;;;5014443;28;20236;-75
2022/04/11 08:04:32;;;;;;;3.97;3.57;;;5.20;99.90;;;;;;5014468;28;20269;-75
2022/04/11 08:06:59;;;;;;;4.20;3.30;;;5.40;99.90;;;;;;5031129;28;20178;-75
2022/04/11 08:09:25;;;;;;;4.10;3.70;;;5.50;99.90;;;;;;5014500;28;20201;-75
2022/04/11 08:11:50;;;;;;;4.10;3.70;;;5.70;99.90;;;;;;4998014;28;20205;-75
2022/04/11 08:14:17;;;;;;;5.50;3.77;;;5.90;99.90;;;;;;5014282;28;20206;-75
2022/04/11 08:16:42;;;;;;;5.10;3.73;;;6.10;99.90;;;;;;5014406;28;20548;-75
2022/04/11 08:19:08;;;;;;;4.10;3.70;;;6.20;99.90;;;;;;5014445;28;20166;-75
2022/04/11 08:21:34;;;;;;;4.37;3.97;;;6.40;99.90;;;;;;5014362;28;20178;-75
2022/04/11 08:23:59;;;;;;;4.20;3.80;;;6.50;99.90;;;;;;4997646;28;20185;-75
2022/04/11 08:26:25;;;;;;;4.87;4.03;;;6.70;99.90;;;;;;4998289;28;20178;-75
2022/04/11 08:28:50;;;;;;;4.87;3.77;;;6.80;99.90;;;;;;5014202;28;20182;-76
2022/04/11 08:31:16;;;;;;;5.87;4.20;;;7.00;99.90;;;;;;5031811;28;20197;-76
2022/04/11 08:33:42;;;;;;;5.07;3.97;;;7.20;99.90;;;;;;5014108;28;20237;-75
2022/04/11 08:36:07;;;;;;;3.90;3.50;;;7.40;99.90;;;;;;5031790;28;20173;-75
2022/04/11 08:38:33;;;;;;;5.60;4.10;;;7.50;99.90;;;;;;5014227;28;20419;-77
2022/04/11 08:41:02;;;;;;;4.07;3.67;;;7.60;99.90;;;;;;4997792;28;20203;-76
2022/04/11 08:43:27;;;;;;;3.93;3.53;;;7.80;99.90;;;;;;5013834;28;20185;-75
2022/04/11 08:45:54;;;;;;;4.30;3.50;;;8.00;99.90;;;;;;5030413;28;20181;-75
2022/04/11 08:48:23;;;;;;;5.10;3.33;;;8.20;99.90;;;;;;5015401;28;20180;-75
2022/04/11 08:50:49;;;;;;;4.23;3.50;;;8.40;99.90;;;;;;5017959;28;20221;-75
2022/04/11 08:53:20;;;;;;;4.23;3.43;;;8.50;99.90;;;;;;5017532;28;20181;-75
2022/04/11 08:55:46;;;;;;;4.03;3.20;;;8.70;99.90;;;;;;5034255;28;20212;-75
2022/04/11 08:58:12;;;;;;;3.83;3.27;;;8.90;99.90;;;;;;5001498;28;20179;-75
2022/04/11 09:00:37;;;;;;;3.80;3.00;;;9.10;99.90;;;;;;5001430;28;20826;-75
2022/04/11 09:03:05;;;;;;;3.47;3.03;;;9.30;99.90;;;;;;5033984;28;20225;-75
2022/04/11 09:05:31;;;;;;;3.00;2.70;;;9.50;99.90;;;;;;5001765;28;20180;-75
2022/04/11 09:07:58;;;;;;;3.33;2.37;;;9.60;99.90;;;;;;5034151;28;20183;-75
2022/04/11 09:10:27;;;;;;;2.60;2.40;;;9.60;99.90;;;;;;5033906;28;20630;-75
2022/04/11 09:12:58;;;;;;;2.77;2.20;;;9.70;99.90;;;;;;5017360;28;20181;-75
2022/04/11 09:15:25;;;;;;;3.63;2.40;;;9.90;99.90;;;;;;5033918;28;20206;-75
2022/04/11 09:17:52;;;;;;;3.17;1.93;;;10.00;99.90;;;;;;5034553;28;20179;-75
2022/04/11 09:20:21;;;;;;;3.00;1.90;;;10.10;99.90;;;;;;5034477;28;20222;-75
2022/04/11 09:22:47;;;;;;;2.20;1.83;;;10.30;99.90;;;;;;5017950;28;20197;-75
2022/04/11 09:25:21;;;;;;;3.60;2.43;;;10.30;99.90;;;;;;5017657;28;20187;-75
2022/04/11 09:27:47;;;;;;;8.40;4.87;;;10.50;99.90;;;;;;5017830;28;20192;-76
2022/04/11 09:30:31;;;;;;;3.17;2.20;;;10.60;99.90;;;;;;5017910;28;20210;-76
2022/04/11 09:32:56;;;;;;;2.97;1.97;;;10.70;99.90;;;;;;5017809;28;20180;-76
2022/04/11 09:35:28;;;;;;;2.67;2.10;;;10.90;99.90;;;;;;5033877;28;20276;-76
2022/04/11 09:38:13;;;;;;;4.23;1.90;;;11.10;99.90;;;;;;5001785;28;20177;-76
2022/04/11 09:40:45;;;;;;;1.90;1.70;;;11.10;99.90;;;;;;5034010;28;20563;-75
2022/04/11 09:43:13;;;;;;;4.10;2.03;;;11.10;99.90;;;;;;5017284;28;20176;-75
2022/04/11 09:45:43;;;;;;;2.83;2.00;;;11.10;99.90;;;;;;5017462;28;20243;-75
2022/04/11 09:48:10;;;;;;;6.00;3.47;;;11.20;99.90;;;;;;5034122;28;20170;-75
2022/04/11 09:50:36;;;;;;;4.63;2.60;;;11.60;99.90;;;;;;5033594;28;20619;-77
2022/04/11 09:53:13;;;;;;;3.50;1.93;;;11.50;98.50;;;;;;5017447;28;20177;-75
2022/04/11 09:55:39;;;;;;;2.10;1.60;;;11.60;99.10;;;;;;5033951;28;20174;-75
2022/04/11 09:58:06;;;;;;;2.43;1.90;;;11.50;98.40;;;;;;5033679;28;20645;-75
2022/04/11 10:00:34;;;;;;;1.70;1.50;;;11.50;97.20;;;;;;5034249;28;20191;-75
2022/04/11 10:03:01;;;;;;;3.50;1.93;;;11.70;97.90;;;;;;5033263;28;20186;-75
2022/04/11 10:05:27;;;;;;;2.83;2.00;;;11.60;97.50;;;;;;5034618;28;20182;-75
2022/04/11 10:07:54;;;;;;;2.83;1.90;;;11.70;97.20;;;;;;5033733;28;20544;-75
2022/04/11 10:10:22;;;;;;;3.33;1.97;;;11.80;97.00;;;;;;5033187;28;20202;-75
2022/04/11 10:12:48;;;;;;;1.80;1.63;;;11.70;96.60;;;;;;5033522;28;20184;-75
2022/04/11 10:15:14;;;;;;;3.53;2.00;;;11.80;96.90;;;;;;5033182;28;20190;-77
2022/04/11 10:17:40;;;;;;;2.10;1.73;;;11.90;98.10;;;;;;5016950;28;20178;-76
2022/04/11 10:20:06;;;;;;;2.73;1.90;;;12.30;97.80;;;;;;5000597;28;20209;-75
2022/04/11 10:22:43;;;;;;;2.57;1.73;;;12.50;95.80;;;;;;5032852;28;20310;-75
2022/04/11 10:25:15;;;;;;;3.03;1.80;;;12.80;95.60;;;;;;5033366;28;20170;-75
2022/04/11 10:27:40;;;;;;;2.00;1.80;;;13.10;97.20;;;;;;5017101;28;20170;-75
2022/04/11 10:30:27;;;;;;;2.80;1.80;;;13.10;94.40;;;;;;5016569;28;20569;-75
2022/04/11 10:32:55;;;;;;;2.53;2.20;;;12.90;92.20;;;;;;5033330;28;20168;-75
2022/04/11 10:35:53;;;;;;;2.50;1.97;;;13.10;95.60;;;;;;5032859;28;20198;-75
2022/04/11 10:38:20;;;;;;;3.17;2.00;;;13.10;96.50;;;;;;4979194;28;20563;-76
2022/04/11 10:40:48;;;;;;;1.93;1.80;;;13.10;94.30;;;;;;5016582;28;20195;-76
2022/04/11 10:43:16;;;;;;;2.67;1.80;;;13.30;94.60;;;;;;5032912;28;20312;-75
2022/04/11 10:45:58;;;;;;;3.13;1.90;;;13.80;95.30;;;;;;5016575;28;20185;-75
2022/04/11 10:48:57;;;;;;;2.50;1.50;;;14.10;94.40;;;;;;5032676;28;20158;-75
2022/04/11 10:51:22;;;;;;;2.77;1.90;;;14.10;90.60;;;;;;5059572;22;20316;-75
2022/04/11 10:54:14;;;;;;;3.63;1.80;;;14.30;92.20;;;;;;4983635;28;20340;-75
2022/04/11 10:56:51;;;;;;;3.23;1.87;;;14.50;91.10;;;;;;5016364;28;20174;-75
2022/04/11 10:59:28;;;;;;;3.00;1.80;;;13.90;86.60;;;;;;4999461;28;20648;-75
2022/04/11 11:01:56;;;;;;;2.57;1.60;;;14.00;86.20;;;;;;5016008;28;20626;-75
2022/04/11 11:04:24;;;;;;;2.80;1.97;;;13.70;82.40;;;;;;4999735;28;20179;-76
2022/04/11 11:07:23;;;;;;;1.57;1.40;;;14.00;87.30;;;;;;5033645;28;20184;-76
2022/04/11 11:09:54;;;;;;;3.17;1.63;;;14.40;82.80;;;;;;5015878;28;20201;-75
2022/04/11 11:12:20;;;;;;;2.27;1.57;;;14.60;82.10;;;;;;5015341;28;20178;-76
2022/04/11 11:14:46;;;;;;;2.03;1.63;;;14.90;81.50;;;;;;4999441;28;20205;-76
2022/04/11 11:17:12;;;;;;;2.90;1.50;;;14.60;73.80;;;;;;5015692;28;20182;-76
2022/04/11 11:20:07;;;;;;;2.13;1.50;;;15.00;76.60;;;;;;4999018;28;20222;-75
2022/04/11 11:22:53;;;;;;;2.00;1.83;;;15.40;78.20;;;;;;5015259;28;20177;-75
2022/04/11 11:25:19;;;;;;;1.83;1.37;;;15.00;66.20;;;;;;4966210;28;20174;-75
2022/04/11 11:27:46;;;;;;;2.87;1.63;;;15.20;76.60;;;;;;4998787;28;20232;-75
2022/04/11 11:30:13;;;;;;;1.43;1.30;;;15.50;76.40;;;;;;5014782;28;20249;-75
2022/04/11 11:32:40;;;;;;;2.10;1.40;;;15.60;68.30;;;;;;5014030;28;20737;-75
2022/04/11 11:35:09;;;;;;;2.60;1.50;;;15.40;60.40;;;;;;4982505;28;20210;-75
2022/04/11 11:37:35;;;;;;;1.90;1.40;;;15.20;62.30;;;;;;4998756;28;20166;-75
2022/04/11 11:40:03;;;;;;;1.83;1.50;;;15.00;66.10;;;;;;4998630;28;20229;-75
2022/04/11 11:42:35;;;;;;;2.00;1.23;;;15.30;69.30;;;;;;4998198;28;20265;-75
2022/04/11 11:45:02;;;;;;;2.30;1.57;;;15.40;64.00;;;;;;5032434;28;20174;-75
2022/04/11 11:47:28;;;;;;;1.53;1.37;;;15.60;67.50;;;;;;4982476;28;20182;-75
2022/04/11 11:50:02;;;;;;;2.53;1.60;;;15.70;63.20;;;;;;4998283;28;20210;-75
2022/04/11 11:52:27;;;;;;;1.60;1.50;;;14.90;59.50;;;;;;4998055;28;20197;-75
2022/04/11 11:54:53;;;;;;;1.87;1.67;;;15.20;62.80;;;;;;4982037;28;20595;-75
2022/04/11 11:57:22;;;;;;;1.80;1.70;;;15.00;64.80;;;;;;5014748;28;20601;-75
2022/04/11 12:00:07;;;;;;;3.63;1.70;;;14.90;66.50;;;;;;4998476;28;20680;-75
2022/04/11 12:05:22;;;;;;;2.13;1.60;;;16.00;69.00;;;;;;5017715;28;20205;-76
2022/04/11 12:08:13;;;;;;;2.80;1.30;;;16.40;70.00;;;;;;4998582;28;20178;-77
2022/04/11 12:10:40;;;;;;;1.97;1.63;;;16.70;67.50;;;;;;5014414;28;20198;-76
2022/04/11 12:13:05;;;;;;;2.20;1.60;;;16.10;59.30;;;;;;4998044;28;20174;-76
2022/04/11 12:15:33;;;;;;;2.90;1.50;;;16.00;63.30;;;;;;5014310;28;20275;-75
2022/04/11 12:18:04;;;;;;;2.33;1.50;;;15.90;68.30;;;;;;5014293;28;20197;-75
2022/04/11 12:20:32;;;;;;;3.20;1.70;;;16.20;65.70;;;;;;5014517;28;20676;-77
2022/04/11 12:23:00;;;;;;;2.37;1.50;;;15.60;63.70;;;;;;5016625;28;20174;-76
2022/04/11 12:25:31;;;;;;;2.43;1.73;;;16.10;64.00;;;;;;5018436;28;20170;-75
2022/04/11 12:28:18;;;;;;;2.13;1.50;;;15.70;59.20;;;;;;5018532;28;20189;-75
2022/04/11 12:31:14;;;;;;;2.63;1.70;;;15.70;61.00;;;;;;5018408;28;20198;-75
2022/04/11 12:33:46;;;;;;;2.17;1.50;;;15.70;57.60;;;;;;5002901;28;20204;-76
2022/04/11 12:36:23;;;;;;;1.97;1.73;;;16.10;60.20;;;;;;5002008;28;20682;-76
2022/04/11 12:38:59;;;;;;;2.57;1.90;;;16.00;61.70;;;;;;5001655;28;20232;-78
2022/04/11 12:41:32;;;;;;;2.40;1.70;;;16.00;61.30;;;;;;5018068;28;20186;-75
2022/04/11 12:44:09;;;;;;;2.53;1.70;;;16.00;60.10;;;;;;5001563;28;20266;-75
2022/04/11 12:46:41;;;;;;;2.87;1.90;;;15.80;61.70;;;;;;5035603;28;20174;-75
2022/04/11 12:49:09;;;;;;;1.70;1.60;;;16.20;64.80;;;;;;5018078;28;20181;-75
2022/04/11 12:51:35;;;;;;;3.20;1.97;;;16.70;67.00;;;;;;5001665;28;20209;-75
2022/04/11 12:54:19;;;;;;;4.03;1.93;;;16.30;59.40;;;;;;5001356;28;20212;-74
2022/04/11 12:56:49;;;;;;;3.80;2.17;;;16.40;73.20;;;;;;5017781;28;20545;-75
2022/04/11 12:59:29;;;;;;;2.37;2.07;;;16.60;62.80;;;;;;5017796;28;20175;-75
2022/04/11 13:02:07;;;;;;;2.97;2.30;;;16.20;61.70;;;;;;5017511;28;20220;-75